»·PEaware :: SKW3086 KMFR-KLAX

SKW3086 :: KMFR-KLAX

FLIGHT INFORMATION

Flight Status: Arrived
Operator:
SkyWest Airlines
More flights by this operator :: More flights under this callsign
Pilot: Anonymous 12254 (12254)
Aircraft: CANADAIR CL-600 CRJ-200
(CRJ2)
More flights by this aircraft type
Origin: KMFR Rogue Valley Intl-Medford
United States
Destination: KLAX Los Angeles Intl
United States
More flights between these airports :: More routes between these airports
Route: RBL SAC BURGL IRNMN2
File this flight plan on PilotEdge
Remarks:
Altitude:
(Current/Filed)
33,000ft
Speed:
(Current/Filed)
450kts
Departed: 28-Sep-19 11:51 AM
Arrived: 28-Sep-19 01:27 PM
Distance/Time
Traveled:
547nm/1:36
Distance/Time
To Go:
Arrived

Flight Plot

Page will automatically refresh every two minutes.

Flight plan parsing failed; only flown route is shown


Map Options




Map Legend


Flown Route
Filed Route
Departure Airport
Arrival Airport
Navaid (VOR, NDB)
Fix

Horizontal Profiles

Position Reports

Time Latitude Longitude Heading Altitude Ground
Speed
28-Sep-19 11:14 42.368770 -122.873050 64 1318ft 0kts
28-Sep-19 11:15 42.368770 -122.873050 64 1318ft 0kts
28-Sep-19 11:16 42.368770 -122.873050 64 1318ft 0kts
28-Sep-19 11:17 42.368770 -122.873050 64 1318ft 0kts
28-Sep-19 11:18 42.368770 -122.873050 64 1318ft 0kts
28-Sep-19 11:19 42.368770 -122.873050 64 1318ft 0kts
28-Sep-19 11:20 42.368770 -122.873050 64 1318ft 0kts
28-Sep-19 11:21 42.368770 -122.873050 64 1318ft 0kts
28-Sep-19 11:22 42.368770 -122.873050 64 1318ft 0kts
28-Sep-19 11:23 42.368770 -122.873050 64 1318ft 0kts
28-Sep-19 11:24 42.368770 -122.873050 64 1318ft 0kts
28-Sep-19 11:25 42.368770 -122.873050 64 1318ft 0kts
28-Sep-19 11:26 42.368770 -122.873050 64 1318ft 0kts
28-Sep-19 11:27 42.368770 -122.873050 64 1318ft 0kts
28-Sep-19 11:28 42.368770 -122.873050 64 1318ft 0kts
28-Sep-19 11:29 42.368770 -122.873050 64 1318ft 0kts
28-Sep-19 11:30 42.368770 -122.873050 64 1318ft 0kts
28-Sep-19 11:31 42.368770 -122.873050 64 1318ft 0kts
28-Sep-19 11:32 42.368770 -122.873050 64 1318ft 0kts
28-Sep-19 11:33 42.368770 -122.873050 64 1318ft 0kts
28-Sep-19 11:34 42.368770 -122.873050 64 1318ft 0kts
28-Sep-19 11:35 42.368770 -122.873050 64 1318ft 0kts
28-Sep-19 11:36 42.368770 -122.873050 64 1318ft 0kts
28-Sep-19 11:37 42.368770 -122.873050 64 1318ft 0kts
28-Sep-19 11:38 42.368770 -122.873050 64 1318ft 0kts
28-Sep-19 11:39 42.368770 -122.873050 64 1318ft 0kts
28-Sep-19 11:40 42.368770 -122.873050 64 1318ft 0kts
28-Sep-19 11:42 42.368770 -122.873050 64 1318ft 0kts
28-Sep-19 11:43 42.368770 -122.873050 64 1318ft 0kts
28-Sep-19 11:44 42.368770 -122.873050 64 1318ft 0kts
28-Sep-19 11:45 42.368770 -122.873050 64 1318ft 0kts
28-Sep-19 11:46 42.368770 -122.873050 64 1318ft 0kts
28-Sep-19 11:47 42.368775 -122.873035 64 1318ft 0kts
28-Sep-19 11:48 42.368416 -122.871437 156 1321ft 10kts
28-Sep-19 11:49 42.364141 -122.869217 158 1326ft 20kts
28-Sep-19 11:50 42.364169 -122.867649 348 1329ft 15kts
28-Sep-19 11:51 42.402499 -122.887433 349 2084ft 216kts
28-Sep-19 11:52 42.445551 -122.860325 29 4643ft 159kts
28-Sep-19 11:53 42.492567 -122.824013 8 6581ft 224kts
28-Sep-19 11:54 42.548811 -122.878912 314 8691ft 296kts
28-Sep-19 11:55 42.586387 -122.989910 261 10716ft 382kts
28-Sep-19 11:56 42.510746 -123.074215 180 12152ft 382kts
28-Sep-19 11:57 42.419991 -123.000288 139 14203ft 388kts
28-Sep-19 11:58 42.337540 -122.903490 140 16233ft 387kts
28-Sep-19 11:59 42.256103 -122.808182 140 18251ft 381kts
28-Sep-19 12:00 42.163283 -122.752294 172 20278ft 358kts
28-Sep-19 12:01 42.067262 -122.726585 174 22283ft 340kts
28-Sep-19 12:02 41.976800 -122.703326 175 24274ft 315kts
28-Sep-19 12:02 41.908121 -122.685730 176 25899ft 285kts
28-Sep-19 12:03 41.833408 -122.666672 177 27850ft 261kts
28-Sep-19 12:05 41.747636 -122.644937 177 29463ft 277kts
28-Sep-19 12:05 41.682597 -122.628418 177 30345ft 289kts
28-Sep-19 12:06 41.601095 -122.607775 177 31404ft 303kts
28-Sep-19 12:08 41.500763 -122.582414 176 32646ft 320kts
28-Sep-19 12:08 41.424571 -122.563291 176 33010ft 351kts
28-Sep-19 12:09 41.320102 -122.537033 175 33008ft 406kts
28-Sep-19 12:10 41.200572 -122.507079 174 32985ft 461kts
28-Sep-19 12:11 41.066769 -122.473605 175 32930ft 498kts
28-Sep-19 12:12 40.928006 -122.439139 177 32985ft 506kts
28-Sep-19 12:13 40.792057 -122.405597 177 32906ft 505kts
28-Sep-19 12:14 40.653296 -122.371430 177 32908ft 504kts
28-Sep-19 12:15 40.515241 -122.337580 177 32894ft 503kts
28-Sep-19 12:16 40.377623 -122.303972 177 32894ft 498kts
28-Sep-19 12:17 40.240746 -122.270696 177 32901ft 494kts
28-Sep-19 12:18 40.104906 -122.237536 175 32901ft 496kts
28-Sep-19 12:19 39.971596 -122.182445 170 32906ft 501kts
28-Sep-19 12:20 39.838458 -122.126320 170 32907ft 501kts
28-Sep-19 12:21 39.705547 -122.070506 170 32907ft 501kts
28-Sep-19 12:22 39.577182 -122.016832 170 32909ft 501kts
28-Sep-19 12:23 39.446531 -121.962393 170 32913ft 501kts
28-Sep-19 12:24 39.315560 -121.908053 170 32928ft 501kts
28-Sep-19 12:25 39.188569 -121.855565 170 32928ft 502kts
28-Sep-19 12:26 39.062098 -121.803495 170 32930ft 502kts
28-Sep-19 12:27 38.929672 -121.749199 169 32933ft 503kts
28-Sep-19 12:28 38.805834 -121.698571 169 32930ft 506kts
28-Sep-19 12:29 38.674160 -121.644966 169 32934ft 507kts
28-Sep-19 12:30 38.543468 -121.591971 169 32940ft 508kts
28-Sep-19 12:31 38.412822 -121.534870 163 32947ft 514kts
28-Sep-19 12:32 38.281377 -121.464009 163 32944ft 514kts
28-Sep-19 12:33 38.149143 -121.392934 163 32951ft 515kts
28-Sep-19 12:34 38.017593 -121.322516 164 32941ft 515kts
28-Sep-19 12:35 37.887499 -121.253133 164 32941ft 514kts
28-Sep-19 12:36 37.753796 -121.182104 164 32943ft 513kts
28-Sep-19 12:37 37.621929 -121.112324 164 32943ft 508kts
28-Sep-19 12:38 37.491466 -121.043564 164 32945ft 499kts
28-Sep-19 12:39 37.363409 -120.976333 164 32945ft 490kts
28-Sep-19 12:40 37.237576 -120.910494 164 32983ft 482kts
28-Sep-19 12:41 37.113128 -120.845625 165 33024ft 479kts
28-Sep-19 12:42 36.989088 -120.781188 165 32967ft 480kts
28-Sep-19 12:43 36.865198 -120.717071 165 32953ft 479kts
28-Sep-19 12:44 36.741101 -120.653055 165 32954ft 479kts
28-Sep-19 12:45 36.617272 -120.589409 165 32959ft 479kts
28-Sep-19 12:46 36.492959 -120.525743 165 32959ft 480kts
28-Sep-19 12:47 36.368815 -120.462384 165 32961ft 480kts
28-Sep-19 12:48 36.244308 -120.399047 165 32971ft 479kts
28-Sep-19 12:49 36.120808 -120.336451 165 32967ft 479kts
28-Sep-19 12:50 35.996894 -120.273842 165 32958ft 478kts
28-Sep-19 12:51 35.874145 -120.212046 165 32979ft 477kts
28-Sep-19 12:52 35.750281 -120.149889 165 32992ft 477kts
28-Sep-19 12:53 35.628691 -120.079355 156 33001ft 488kts
28-Sep-19 12:54 35.511404 -119.991130 156 33001ft 489kts
28-Sep-19 12:55 35.394932 -119.903650 156 33000ft 489kts
28-Sep-19 12:56 35.279346 -119.814795 150 32998ft 494kts
28-Sep-19 12:57 35.171702 -119.714699 150 32283ft 479kts
28-Sep-19 12:58 35.065606 -119.615866 149 30283ft 473kts
28-Sep-19 12:59 34.960544 -119.518406 147 27956ft 470kts
28-Sep-19 13:00 34.855442 -119.422774 147 25451ft 456kts
28-Sep-19 13:01 34.755878 -119.333735 148 23036ft 427kts
28-Sep-19 13:02 34.664589 -119.253805 149 21573ft 388kts
28-Sep-19 13:03 34.577218 -119.178322 149 19527ft 374kts
28-Sep-19 13:04 34.492651 -119.103740 148 17473ft 364kts
28-Sep-19 13:05 34.410914 -119.032049 149 15446ft 355kts
28-Sep-19 13:06 34.330899 -118.962075 148 13978ft 331kts
28-Sep-19 13:07 34.259465 -118.897351 148 12721ft 317kts
28-Sep-19 13:08 34.189900 -118.833505 149 11965ft 284kts
28-Sep-19 13:09 34.134118 -118.777028 144 11104ft 278kts
28-Sep-19 13:10 34.078393 -118.716605 142 9356ft 292kts
28-Sep-19 13:11 34.029955 -118.644535 102 8602ft 278kts
28-Sep-19 13:12 34.019728 -118.556008 99 7979ft 244kts
28-Sep-19 13:13 34.011865 -118.474415 99 6989ft 237kts
28-Sep-19 13:14 34.020978 -118.395957 81 6116ft 243kts
28-Sep-19 13:15 34.031112 -118.319576 87 5983ft 233kts
28-Sep-19 13:16 34.039262 -118.241311 87 5856ft 238kts
28-Sep-19 13:17 34.048105 -118.156062 86 4364ft 264kts
28-Sep-19 13:18 34.055189 -118.070566 108 3961ft 224kts
28-Sep-19 13:19 34.016944 -118.066591 231 3936ft 164kts
28-Sep-19 13:20 33.981672 -118.105052 248 3270ft 164kts
28-Sep-19 13:21 33.985278 -118.162755 262 2716ft 191kts
28-Sep-19 13:22 33.986696 -118.224423 264 2288ft 175kts
28-Sep-19 13:23 33.972969 -118.276744 245 1918ft 154kts
28-Sep-19 13:24 33.960549 -118.327730 256 1418ft 152kts
28-Sep-19 13:25 33.954640 -118.377235 260 579ft 132kts
28-Sep-19 13:26 33.950700 -118.415529 264 119ft 33kts
28-Sep-19 13:27 33.950292 -118.417529 244 117ft 12kts
28-Sep-19 13:28 33.946864 -118.421952 85 114ft 13kts
28-Sep-19 13:29 33.945250 -118.418864 173 114ft 0kts
28-Sep-19 13:30 33.945251 -118.418864 173 114ft 0kts
28-Sep-19 13:31 33.945251 -118.418864 173 114ft 0kts
28-Sep-19 13:32 33.953886 -118.384812 261 444ft 129kts
28-Sep-19 13:33 33.950493 -118.416887 256 117ft 20kts
28-Sep-19 13:34 33.945251 -118.418864 173 114ft 0kts
28-Sep-19 13:35 33.945251 -118.418864 173 114ft 0kts

Navigation Log

Ident Type
Flight plan parsing failed, navigation log unavailable